Flight Track Log - Related Links

Times and Time Zones

All times are in EDT time to prevent confusion due to time zone crossing. See the N9032V flight status page for this flight to view local times or setup timezone preferences in your user account.

Time Position Orientation Groundspeed Altitude Reporting Facility
EDT Latitude Longitude Course Direction KTS MPH feet Rate Location/Type
Mon 07:12:32 PM 42.8333 -85.3279 105° East  Level FlightAware Approximate
Mon 07:13:32 PM 42.8312 -85.2724 106° East  Level FlightAware Approximate
Mon 07:14:32 PM 42.8122 -85.2228 105° East  Level FlightAware Approximate
Mon 07:15:32 PM 42.7932 -85.1733 104° East  Level FlightAware Approximate
Mon 07:16:32 PM 42.7742 -85.1237 103° East  Level FlightAware Approximate
Mon 07:17:32 PM 42.7551 -85.0743 102° East  Level FlightAware Approximate
Mon 07:18:32 PM 42.7361 -85.0248 101° East  Level FlightAware Approximate
Mon 07:19:32 PM 42.7170 -84.9754 99° East  Level FlightAware Approximate
Mon 07:20:32 PM 42.6979 -84.9260 97° East  Level FlightAware Approximate
Mon 07:21:32 PM 42.6788 -84.8766 94° East  Level FlightAware Approximate
Mon 07:22:32 PM 42.6596 -84.8273 91° East  Level FlightAware Approximate
Mon 07:23:32 PM 42.6405 -84.7780 86° East  Level FlightAware Approximate
Mon 07:24:32 PM 42.6213 -84.7287 80° East  Level FlightAware Approximate
Mon 07:25:32 PM 42.6021 -84.6794 72° East  Level FlightAware Approximate
Mon 07:26:32 PM 42.5828 -84.6302 61° Northeast  Level FlightAware Approximate
Mon 07:27:32 PM 42.5636 -84.5810 47° Northeast  Level FlightAware Approximate
Mon 07:27:37 PM 42.6558 -84.4483 99° East 180 207 5,100  Level Cleveland Center
Mon 07:32:05 PM 42.6197 -84.1469 102° East 181 208 5,000 -18 Descending Cleveland Center
Mon 07:33:06 PM 42.6092 -84.0817 104° East 179 206 5,000  Level Cleveland Center
Mon 07:34:06 PM 42.5967 -84.0161 107° East 178 205 5,000  Level Cleveland Center
Mon 07:35:07 PM 42.5819 -83.9503 133° Southeast 179 206 5,000 -49 Level Cleveland Center
Mon 07:36:08 PM 42.5497 -83.9033 128° Southeast 175 201 4,900  Descending Cleveland Center
Mon 07:37:09 PM 42.5200 -83.8511 129° Southeast 179 206 5,000 49 Climbing Cleveland Center
Mon 07:38:10 PM 42.4883 -83.7989 126° Southeast 181 208 5,000  Level Cleveland Center
Mon 07:39:10 PM 42.4583 -83.7439 114° Southeast 184 212 5,000  Level Cleveland Center
Mon 07:40:11 PM 42.4372 -83.6808 130° Southeast 183 211 5,000 -295 Level Cleveland Center
Mon 07:41:12 PM 42.4072 -83.6317 178° South 186 214 4,400 -787 Descending Cleveland Center
Mon 07:42:13 PM 42.3614 -83.6294 209° Southwest 176 203 3,400 -991 Descending Cleveland Center
Mon 07:43:07 PM 42.3231 -83.6583 210° Southwest 174 200 2,500 -522 Descending Cleveland Center
Mon 07:44:08 PM 42.2850 -83.6875 206° Southwest 147 169 2,400 -429 Descending Cleveland Center
Mon 07:45:27 PM 42.2531 -83.7083 215° Southwest 99 114 1,500 -471 Descending Cleveland Center
Mon 07:46:28 PM 42.2358 -83.7244 232° Southwest 79 91 1,300 -209 Descending Cleveland Center
Mon 07:47:22 PM 42.2250 -83.7433 232° Southwest 79 91 1,100 -222 Descending Cleveland Center

Login

Don't have an account? Register now (free) for customized features, flight alerts, and more!